Time;durP1;ratioP1;P1;durP2;ratioP2;P2;SDS_P1;SDS_P2;PMS_P1;PMS_P2;Temp;Humidity;BMP_temperature;BMP_pressure;BME280_temperature;BME280_humidity;BME280_pressure;Samples;Min_cycle;Max_cycle;Signal;HPM_P1;HPM_P2
2023/04/27 00:00:00;;;;;;;8.43;7.90;;;10.60;99.90;;;;;;5051858;28;20458;-82
2023/04/27 00:02:28;;;;;;;7.90;7.60;;;10.60;99.90;;;;;;5056759;28;20483;-82
2023/04/27 00:04:57;;;;;;;8.17;7.87;;;10.60;99.90;;;;;;5055501;28;20472;-82
2023/04/27 00:07:26;;;;;;;8.23;7.93;;;10.60;99.90;;;;;;5050617;28;20462;-83
2023/04/27 00:09:54;;;;;;;8.87;8.20;;;10.50;99.90;;;;;;5053107;28;20459;-82
2023/04/27 00:12:22;;;;;;;8.83;8.33;;;10.50;99.90;;;;;;5054628;28;20486;-83
2023/04/27 00:14:51;;;;;;;9.00;8.40;;;10.50;99.90;;;;;;5047076;28;20998;-83
2023/04/27 00:17:20;;;;;;;8.77;8.30;;;10.50;99.90;;;;;;5047236;28;20459;-82
2023/04/27 00:19:48;;;;;;;8.33;7.83;;;10.60;99.90;;;;;;5053597;28;20455;-82
2023/04/27 00:22:17;;;;;;;8.40;7.97;;;10.60;99.90;;;;;;5054400;28;20470;-82
2023/04/27 00:24:45;;;;;;;9.30;8.90;;;10.50;99.90;;;;;;5056238;28;20459;-82
2023/04/27 00:27:13;;;;;;;9.13;8.57;;;10.50;99.90;;;;;;5058647;28;20462;-81
2023/04/27 00:29:41;;;;;;;8.90;8.30;;;10.50;99.90;;;;;;5057348;28;20457;-82
2023/04/27 00:32:10;;;;;;;9.23;8.53;;;10.50;99.90;;;;;;5054474;28;20557;-82
2023/04/27 00:34:40;;;;;;;9.00;8.60;;;10.50;99.90;;;;;;5054607;28;20971;-82
2023/04/27 00:37:08;;;;;;;8.53;8.23;;;10.50;99.90;;;;;;5054350;28;20479;-81
2023/04/27 00:39:36;;;;;;;9.40;8.70;;;10.40;99.90;;;;;;5055269;28;20459;-82
2023/04/27 00:42:05;;;;;;;9.43;8.87;;;10.30;99.90;;;;;;5059170;28;20468;-82
2023/04/27 00:44:33;;;;;;;9.47;8.77;;;10.30;99.90;;;;;;5056779;28;20446;-80
2023/04/27 00:47:01;;;;;;;9.13;8.60;;;10.30;99.90;;;;;;5057863;28;20460;-81
2023/04/27 00:49:30;;;;;;;9.23;8.70;;;10.30;99.90;;;;;;5059262;28;20457;-81
2023/04/27 00:52:00;;;;;;;9.93;9.30;;;10.40;99.90;;;;;;5057839;28;20527;-82
2023/04/27 00:54:28;;;;;;;9.50;9.10;;;10.40;99.90;;;;;;5056796;28;20483;-81
2023/04/27 00:56:56;;;;;;;9.87;9.47;;;10.30;99.90;;;;;;5057063;28;20454;-82
2023/04/27 00:59:24;;;;;;;9.70;8.97;;;10.30;99.90;;;;;;5057988;28;20480;-81
2023/04/27 01:01:54;;;;;;;8.97;8.40;;;10.40;99.90;;;;;;5054309;28;20489;-82
2023/04/27 01:04:23;;;;;;;9.33;8.83;;;10.40;99.90;;;;;;5056138;28;20460;-82
2023/04/27 01:06:52;;;;;;;8.97;8.57;;;10.40;99.90;;;;;;5055277;28;20461;-82
2023/04/27 01:09:21;;;;;;;9.67;9.10;;;10.40;99.90;;;;;;5054650;28;20448;-81
2023/04/27 01:11:50;;;;;;;9.33;8.93;;;10.40;99.90;;;;;;5053884;28;21073;-82
2023/04/27 01:14:18;;;;;;;9.53;8.90;;;10.40;99.90;;;;;;5053547;28;20504;-82
2023/04/27 01:16:46;;;;;;;9.17;8.67;;;10.30;99.90;;;;;;5053585;28;20923;-82
2023/04/27 01:19:14;;;;;;;8.73;8.13;;;10.30;99.90;;;;;;5054133;28;21225;-81
2023/04/27 01:21:43;;;;;;;9.10;8.70;;;10.20;99.90;;;;;;5068240;28;20479;-82
2023/04/27 01:24:12;;;;;;;9.57;8.97;;;10.20;99.90;;;;;;5054166;28;20488;-81
2023/04/27 01:26:43;;;;;;;9.30;8.90;;;10.20;99.90;;;;;;5053198;28;21349;-82
2023/04/27 01:29:11;;;;;;;9.00;8.70;;;10.20;99.90;;;;;;5054449;28;20459;-82
2023/04/27 01:31:40;;;;;;;8.77;8.40;;;10.20;99.90;;;;;;5053459;28;20557;-81
2023/04/27 01:34:08;;;;;;;9.80;9.10;;;10.20;99.90;;;;;;5054807;28;20468;-81
2023/04/27 01:36:37;;;;;;;9.27;8.67;;;10.10;99.90;;;;;;5057032;28;20458;-82
2023/04/27 01:39:08;;;;;;;9.87;9.10;;;10.20;99.90;;;;;;5054284;28;20447;-81
2023/04/27 01:41:38;;;;;;;9.40;8.67;;;10.20;99.90;;;;;;5052040;28;21166;-82
2023/04/27 01:44:06;;;;;;;9.00;8.40;;;10.20;99.90;;;;;;5058369;28;20458;-81
2023/04/27 01:46:34;;;;;;;8.90;8.60;;;10.10;99.90;;;;;;5054477;28;20465;-82
2023/04/27 01:49:03;;;;;;;8.80;8.40;;;10.10;99.90;;;;;;5055574;28;20459;-81
2023/04/27 01:51:31;;;;;;;9.17;8.50;;;10.10;99.90;;;;;;5051475;28;20471;-82
2023/04/27 01:53:59;;;;;;;9.20;8.80;;;10.10;99.90;;;;;;5052967;28;21230;-81
2023/04/27 01:56:47;;;;;;;9.20;8.67;;;10.20;99.90;;;;;;5049524;28;20881;-82
2023/04/27 01:59:32;;;;;;;8.90;8.60;;;10.10;99.90;;;;;;5054225;28;20458;-82
2023/04/27 02:02:01;;;;;;;9.20;8.70;;;10.10;99.90;;;;;;5055012;28;21179;-81
2023/04/27 02:04:29;;;;;;;9.50;9.10;;;10.10;99.90;;;;;;5052961;28;21263;-82
2023/04/27 02:06:57;;;;;;;10.00;9.60;;;10.10;99.90;;;;;;5055567;28;20450;-82
2023/04/27 02:09:25;;;;;;;9.70;9.20;;;10.10;99.90;;;;;;5055447;28;21114;-82
2023/04/27 02:11:55;;;;;;;9.20;8.70;;;10.10;99.90;;;;;;5057380;28;20470;-82
2023/04/27 02:14:23;;;;;;;9.27;8.87;;;10.00;99.90;;;;;;5054293;28;20479;-82
2023/04/27 02:16:51;;;;;;;9.53;9.03;;;10.00;99.90;;;;;;5058092;28;20452;-82
2023/04/27 02:19:19;;;;;;;9.93;8.97;;;10.10;99.90;;;;;;5055766;28;20466;-81
2023/04/27 02:22:05;;;;;;;10.10;9.60;;;10.00;99.90;;;;;;5054468;28;20486;-81
2023/04/27 02:24:35;;;;;;;9.70;9.07;;;10.00;99.90;;;;;;5058836;28;20459;-82
2023/04/27 03:19:41;;;;;;;10.33;9.37;;;9.90;99.90;;;;;;5056913;28;20462;-83
2023/04/27 03:22:09;;;;;;;10.93;10.23;;;9.80;99.90;;;;;;5052236;28;20717;-82
2023/04/27 03:24:37;;;;;;;10.43;9.83;;;9.80;99.90;;;;;;5057796;28;20479;-82
2023/04/27 03:27:05;;;;;;;10.00;9.60;;;9.80;99.90;;;;;;5056201;28;20470;-82
2023/04/27 03:29:33;;;;;;;10.30;9.80;;;9.80;99.90;;;;;;5055223;28;21403;-82
2023/04/27 03:32:02;;;;;;;10.93;10.23;;;9.90;99.90;;;;;;5047475;28;20466;-82
2023/04/27 03:34:31;;;;;;;10.00;9.50;;;9.80;99.90;;;;;;5053538;28;20510;-82
2023/04/27 03:37:01;;;;;;;10.00;9.60;;;9.80;99.90;;;;;;5054430;28;20459;-82
2023/04/27 03:39:29;;;;;;;10.70;9.90;;;9.90;99.90;;;;;;5051696;28;20453;-83
2023/04/27 03:41:58;;;;;;;9.43;9.03;;;9.80;99.90;;;;;;5055707;28;20473;-83
2023/04/27 03:44:26;;;;;;;10.50;10.00;;;9.80;99.90;;;;;;5054206;28;20483;-81
2023/04/27 03:46:54;;;;;;;10.10;9.70;;;9.80;99.90;;;;;;5053428;28;20447;-82
2023/04/27 03:49:22;;;;;;;11.60;10.77;;;9.80;99.90;;;;;;5053672;28;20464;-83
2023/04/27 03:51:50;;;;;;;10.80;10.30;;;9.80;99.90;;;;;;5055314;28;20482;-82
2023/04/27 03:54:20;;;;;;;10.70;10.00;;;9.80;99.90;;;;;;5053300;28;20486;-82
2023/04/27 03:56:48;;;;;;;11.00;10.57;;;9.80;99.90;;;;;;5056508;28;20504;-82
2023/04/27 03:59:16;;;;;;;11.10;10.60;;;9.80;99.90;;;;;;5055900;28;20454;-82
2023/04/27 04:01:44;;;;;;;10.73;10.03;;;9.80;99.90;;;;;;5047905;28;20483;-82
2023/04/27 04:04:12;;;;;;;11.37;10.87;;;9.80;99.90;;;;;;5054647;28;20505;-82
2023/04/27 04:06:41;;;;;;;11.00;10.50;;;9.80;99.90;;;;;;5053889;28;20464;-82
2023/04/27 04:09:12;;;;;;;11.10;10.60;;;9.80;99.90;;;;;;5057551;28;20821;-82
2023/04/27 04:11:42;;;;;;;11.97;11.27;;;9.80;99.90;;;;;;5056585;28;21197;-80
2023/04/27 04:14:10;;;;;;;12.00;11.40;;;9.80;99.90;;;;;;5055375;28;20475;-82
2023/04/27 04:16:39;;;;;;;12.17;11.67;;;9.80;99.90;;;;;;5053768;28;20454;-81
2023/04/27 04:19:07;;;;;;;12.10;11.23;;;9.80;99.90;;;;;;5060009;28;20807;-81
2023/04/27 04:21:35;;;;;;;11.83;11.13;;;9.70;99.90;;;;;;5054480;28;20939;-81
2023/04/27 04:24:04;;;;;;;11.77;11.30;;;9.80;99.90;;;;;;5058251;28;20462;-81
2023/04/27 04:26:32;;;;;;;11.97;11.30;;;9.80;99.90;;;;;;5058426;28;20798;-80
2023/04/27 04:29:02;;;;;;;12.10;11.50;;;9.80;99.90;;;;;;5058561;28;20458;-80
2023/04/27 04:31:32;;;;;;;12.67;12.03;;;9.90;99.90;;;;;;5058413;28;20463;-81
2023/04/27 04:34:02;;;;;;;12.20;11.70;;;9.90;99.90;;;;;;5056071;28;20474;-80
2023/04/27 04:36:31;;;;;;;12.60;11.90;;;9.90;99.90;;;;;;5050579;28;20462;-81
2023/04/27 04:38:59;;;;;;;12.30;11.83;;;10.00;99.90;;;;;;5054372;28;21040;-80
2023/04/27 04:41:27;;;;;;;13.83;13.00;;;9.90;99.90;;;;;;5054918;28;21800;-79
2023/04/27 04:43:55;;;;;;;12.53;11.87;;;10.00;99.90;;;;;;5057814;28;20463;-82
2023/04/27 04:46:25;;;;;;;13.43;12.83;;;9.90;99.90;;;;;;5067496;28;20454;-80
2023/04/27 04:48:53;;;;;;;12.93;12.33;;;9.90;99.90;;;;;;5074750;28;20454;-81
2023/04/27 04:51:22;;;;;;;12.90;12.20;;;9.90;99.90;;;;;;5073184;28;20476;-81
2023/04/27 04:53:50;;;;;;;12.23;11.73;;;10.00;99.90;;;;;;5067954;28;20570;-80
2023/04/27 04:56:18;;;;;;;12.80;12.20;;;10.00;99.90;;;;;;5055237;28;20541;-79
2023/04/27 04:58:46;;;;;;;13.43;12.77;;;9.90;99.90;;;;;;5052480;28;20462;-79
2023/04/27 05:01:14;;;;;;;12.67;12.20;;;9.90;99.90;;;;;;5049616;28;20539;-80
2023/04/27 05:03:44;;;;;;;12.90;12.30;;;9.90;99.90;;;;;;5053417;28;20522;-79
2023/04/27 05:06:12;;;;;;;13.67;12.90;;;9.80;99.90;;;;;;5049310;28;20200;-80
2023/04/27 05:08:40;;;;;;;14.37;13.10;;;9.90;99.90;;;;;;5055842;28;20454;-79
2023/04/27 05:11:08;;;;;;;14.47;13.57;;;10.00;99.90;;;;;;5053709;28;20460;-79
2023/04/27 05:13:37;;;;;;;14.33;13.63;;;10.10;99.90;;;;;;5052597;28;21009;-79
2023/04/27 05:16:06;;;;;;;13.93;13.00;;;10.10;99.90;;;;;;5045267;28;20490;-79
2023/04/27 05:18:34;;;;;;;14.13;13.27;;;10.10;99.90;;;;;;5045716;28;20555;-79
2023/04/27 05:21:04;;;;;;;13.67;13.07;;;10.20;99.90;;;;;;5048967;28;20447;-80
2023/04/27 05:23:33;;;;;;;13.00;12.50;;;10.20;99.90;;;;;;5048397;28;20463;-79
2023/04/27 05:26:01;;;;;;;13.53;12.93;;;10.20;99.90;;;;;;5051945;28;20462;-79
2023/04/27 05:28:29;;;;;;;14.13;13.37;;;10.30;99.90;;;;;;5051931;28;20461;-79
2023/04/27 05:30:57;;;;;;;14.87;14.00;;;10.40;99.90;;;;;;5048600;28;20467;-80
2023/04/27 05:33:25;;;;;;;14.00;13.20;;;10.40;99.90;;;;;;5045786;28;20462;-79
2023/04/27 05:35:53;;;;;;;14.07;13.37;;;10.40;99.90;;;;;;5048385;28;20470;-80
2023/04/27 05:38:23;;;;;;;14.07;13.47;;;10.40;99.90;;;;;;5051055;28;20465;-79
2023/04/27 05:40:54;;;;;;;13.97;13.07;;;10.50;99.90;;;;;;5050436;28;20462;-80
2023/04/27 05:43:23;;;;;;;13.67;12.70;;;10.50;99.90;;;;;;5051910;28;20453;-80
2023/04/27 05:45:51;;;;;;;15.00;13.60;;;10.50;99.90;;;;;;5050590;28;20460;-79
2023/04/27 05:48:20;;;;;;;13.30;12.70;;;10.60;99.90;;;;;;5050936;28;20468;-81
2023/04/27 05:50:48;;;;;;;13.10;12.30;;;10.60;99.90;;;;;;5051063;28;20454;-80
2023/04/27 05:53:16;;;;;;;13.73;12.83;;;10.70;99.90;;;;;;5055190;28;20478;-79
2023/04/27 05:55:46;;;;;;;12.43;11.83;;;10.70;99.90;;;;;;5058251;28;21023;-80
2023/04/27 05:58:15;;;;;;;14.37;13.27;;;10.80;99.90;;;;;;5056924;28;20459;-81
2023/04/27 06:00:43;;;;;;;13.57;13.00;;;10.90;99.90;;;;;;5056584;28;21000;-80
2023/04/27 06:03:11;;;;;;;13.63;13.07;;;10.90;99.90;;;;;;5054139;28;20555;-80
2023/04/27 06:05:39;;;;;;;12.73;12.03;;;11.00;99.90;;;;;;5055902;28;20458;-80
2023/04/27 06:08:07;;;;;;;14.47;13.57;;;11.00;99.90;;;;;;5056494;28;20829;-81
2023/04/27 06:10:36;;;;;;;14.47;13.87;;;11.10;99.90;;;;;;5053470;28;20507;-80
2023/04/27 06:13:05;;;;;;;12.83;12.23;;;11.10;99.90;;;;;;5057540;28;20491;-81
2023/04/27 06:15:34;;;;;;;12.87;12.27;;;11.10;99.90;;;;;;5052327;28;20509;-81
2023/04/27 06:18:02;;;;;;;12.80;12.13;;;11.10;99.90;;;;;;5061167;28;20489;-81
2023/04/27 06:20:30;;;;;;;11.97;11.57;;;11.20;99.90;;;;;;5064671;28;20440;-81
2023/04/27 06:22:58;;;;;;;13.40;12.50;;;11.20;99.90;;;;;;5059766;28;20479;-83
2023/04/27 06:25:27;;;;;;;12.50;11.80;;;11.30;99.90;;;;;;5059091;28;20443;-80
2023/04/27 06:27:55;;;;;;;12.10;11.60;;;11.40;99.90;;;;;;5057519;28;20450;-81
2023/04/27 06:30:25;;;;;;;12.67;11.97;;;11.40;99.90;;;;;;5054708;28;20463;-80
2023/04/27 06:32:54;;;;;;;12.75;12.00;;;11.40;99.90;;;;;;5050403;28;20445;-81
2023/04/27 06:35:22;;;;;;;12.63;11.60;;;11.40;99.90;;;;;;5053705;28;20426;-80
2023/04/27 06:37:50;;;;;;;11.70;11.10;;;11.60;99.90;;;;;;5056479;28;20542;-81
2023/04/27 06:40:19;;;;;;;12.30;11.80;;;11.70;99.90;;;;;;5058355;28;20502;-81
2023/04/27 06:42:47;;;;;;;12.83;11.70;;;11.80;99.90;;;;;;5057332;28;20860;-81
2023/04/27 06:45:15;;;;;;;11.60;10.90;;;11.90;99.90;;;;;;5054918;28;20536;-81
2023/04/27 06:47:45;;;;;;;12.93;12.23;;;11.90;99.90;;;;;;5055534;28;20460;-81
2023/04/27 06:50:15;;;;;;;11.83;11.33;;;12.00;99.90;;;;;;5052871;28;20446;-81
2023/04/27 06:52:43;;;;;;;11.60;11.00;;;12.00;99.90;;;;;;5053316;28;20483;-81
2023/04/27 06:55:11;;;;;;;11.83;11.33;;;12.20;99.90;;;;;;5052461;28;20530;-81
2023/04/27 06:57:39;;;;;;;11.70;11.10;;;12.30;99.90;;;;;;5059974;28;20737;-81
2023/04/27 07:00:09;;;;;;;11.77;10.83;;;12.50;99.90;;;;;;5051671;28;20455;-80
2023/04/27 07:02:37;;;;;;;11.70;11.10;;;12.50;99.90;;;;;;5055870;28;20476;-81
2023/04/27 07:05:07;;;;;;;12.13;11.20;;;12.70;99.90;;;;;;5056987;28;21404;-81
2023/04/27 07:07:36;;;;;;;11.77;11.30;;;12.90;99.90;;;;;;5051800;28;20452;-81
2023/04/27 07:10:04;;;;;;;12.43;11.83;;;12.90;99.90;;;;;;5056300;28;20455;-81
2023/04/27 07:12:33;;;;;;;13.10;12.27;;;12.90;99.90;;;;;;5056664;28;20621;-81
2023/04/27 07:15:02;;;;;;;11.73;11.33;;;12.90;99.90;;;;;;5051228;28;20455;-81
2023/04/27 07:17:31;;;;;;;12.30;11.70;;;12.90;99.90;;;;;;5054960;28;20473;-81
2023/04/27 07:19:59;;;;;;;13.27;12.40;;;12.90;99.90;;;;;;5059102;28;20461;-81
2023/04/27 07:22:29;;;;;;;13.77;12.97;;;12.90;99.90;;;;;;5057945;28;20494;-80
2023/04/27 07:24:57;;;;;;;12.93;12.33;;;12.90;99.90;;;;;;5049349;28;20984;-81
2023/04/27 07:27:26;;;;;;;12.70;11.80;;;13.00;99.90;;;;;;5053971;28;20452;-80
2023/04/27 07:29:54;;;;;;;12.60;11.90;;;13.00;99.90;;;;;;5055891;28;20454;-80
2023/04/27 07:32:22;;;;;;;11.40;11.00;;;13.00;99.90;;;;;;5056822;28;20471;-81
2023/04/27 07:34:51;;;;;;;12.90;12.20;;;13.00;99.90;;;;;;5055143;28;20450;-82
2023/04/27 07:37:21;;;;;;;13.20;12.50;;;13.20;99.90;;;;;;5055679;28;20600;-81
2023/04/27 07:39:51;;;;;;;12.90;12.40;;;13.30;99.90;;;;;;5047036;28;20787;-82
2023/04/27 07:42:22;;;;;;;12.73;12.23;;;13.40;99.90;;;;;;5055313;28;20568;-81
2023/04/27 07:44:51;;;;;;;13.00;12.10;;;13.40;99.90;;;;;;5056782;28;20467;-83
2023/04/27 07:47:19;;;;;;;12.90;12.20;;;13.50;99.90;;;;;;5060278;28;20559;-83
2023/04/27 07:49:47;;;;;;;13.67;13.00;;;13.60;99.90;;;;;;5058369;28;20460;-84
2023/04/27 07:52:16;;;;;;;12.30;11.90;;;13.60;99.90;;;;;;5058776;28;20562;-84
2023/04/27 07:54:44;;;;;;;14.03;13.13;;;13.60;99.90;;;;;;5062263;28;20517;-84
2023/04/27 07:57:14;;;;;;;12.10;11.70;;;13.70;99.90;;;;;;5057341;28;20479;-85
2023/04/27 07:59:42;;;;;;;12.80;12.30;;;13.80;99.90;;;;;;5056845;28;20533;-81
2023/04/27 08:02:10;;;;;;;12.70;12.10;;;13.80;99.90;;;;;;5058137;28;20475;-84
2023/04/27 08:04:44;;;;;;;12.90;12.30;;;13.90;99.90;;;;;;5054512;28;20977;-82
2023/04/27 08:07:13;;;;;;;13.00;12.37;;;14.00;99.90;;;;;;5054882;28;20444;-85
2023/04/27 08:09:42;;;;;;;12.70;12.10;;;14.00;99.90;;;;;;5055909;28;20444;-85
2023/04/27 08:12:10;;;;;;;12.37;11.63;;;14.10;99.90;;;;;;5058035;28;20266;-84
2023/04/27 08:14:43;;;;;;;12.20;11.80;;;14.20;99.90;;;;;;5052806;28;20461;-85
2023/04/27 08:17:11;;;;;;;11.97;11.40;;;14.30;99.90;;;;;;5057648;28;20479;-86
2023/04/27 08:19:41;;;;;;;11.10;10.80;;;14.30;99.90;;;;;;5060279;28;20453;-84
2023/04/27 08:22:09;;;;;;;11.90;11.30;;;14.40;99.90;;;;;;5056347;28;21100;-83
2023/04/27 08:24:38;;;;;;;12.40;11.63;;;14.30;99.90;;;;;;5056129;28;20452;-84
2023/04/27 08:27:06;;;;;;;11.53;11.07;;;14.40;99.90;;;;;;5054970;28;20790;-85
2023/04/27 08:29:35;;;;;;;11.40;11.00;;;14.50;99.90;;;;;;5058713;28;20460;-85
2023/04/27 08:32:05;;;;;;;10.63;10.33;;;14.50;99.90;;;;;;5058963;28;20473;-83
2023/04/27 08:34:33;;;;;;;11.50;11.00;;;14.60;99.90;;;;;;5056747;28;20544;-85
2023/04/27 08:37:03;;;;;;;10.67;10.07;;;14.60;99.90;;;;;;5057392;28;20474;-85
2023/04/27 08:39:31;;;;;;;10.90;10.40;;;14.70;99.90;;;;;;5054990;28;20453;-84
2023/04/27 08:42:00;;;;;;;10.47;10.07;;;14.50;99.90;;;;;;5056971;28;20487;-84
2023/04/27 08:44:29;;;;;;;11.43;10.83;;;14.60;99.90;;;;;;5058070;28;20458;-85
2023/04/27 08:46:57;;;;;;;10.57;10.10;;;14.70;99.90;;;;;;5058160;28;20571;-84
2023/04/27 08:49:27;;;;;;;11.70;11.20;;;14.80;99.90;;;;;;5058240;28;20535;-85
2023/04/27 08:51:55;;;;;;;10.63;10.10;;;14.90;99.90;;;;;;5055438;28;20481;-83
2023/04/27 08:54:24;;;;;;;11.23;10.70;;;15.10;99.90;;;;;;5056991;28;21025;-85
2023/04/27 08:56:52;;;;;;;10.23;9.93;;;15.20;99.90;;;;;;5057017;28;20710;-84
2023/04/27 08:59:20;;;;;;;10.57;10.17;;;15.20;99.90;;;;;;5058966;28;20542;-84
2023/04/27 09:01:49;;;;;;;11.07;10.57;;;15.30;99.90;;;;;;5057593;28;20479;-84
2023/04/27 09:04:18;;;;;;;10.93;10.40;;;15.40;99.90;;;;;;5058913;28;20462;-85
2023/04/27 09:06:49;;;;;;;10.70;10.30;;;15.50;99.90;;;;;;5057109;28;20456;-84
2023/04/27 09:09:23;;;;;;;10.57;10.20;;;15.50;99.90;;;;;;5059742;28;20540;-85
2023/04/27 09:11:52;;;;;;;9.90;9.50;;;15.50;99.90;;;;;;5056907;28;20474;-85
2023/04/27 09:14:22;;;;;;;10.30;9.77;;;15.50;99.90;;;;;;5056713;28;20613;-84
2023/04/27 09:16:58;;;;;;;9.97;9.57;;;15.50;99.90;;;;;;5060522;28;21007;-85
2023/04/27 09:19:27;;;;;;;10.40;10.00;;;15.60;99.90;;;;;;5077822;28;20512;-84
2023/04/27 09:22:08;;;;;;;10.87;10.20;;;15.70;99.90;;;;;;5061362;28;20462;-84
2023/04/27 09:24:37;;;;;;;11.00;10.50;;;15.80;99.90;;;;;;5060568;28;21022;-85
2023/04/27 09:27:07;;;;;;;11.00;10.30;;;15.80;99.90;;;;;;5059161;28;20483;-86
2023/04/27 09:29:37;;;;;;;10.43;9.93;;;15.80;99.90;;;;;;5057046;28;20519;-84
2023/04/27 09:32:16;;;;;;;10.90;10.23;;;15.80;99.90;;;;;;5059614;28;20840;-85
2023/04/27 09:34:45;;;;;;;10.77;10.17;;;16.00;99.90;;;;;;5057025;28;20440;-84
2023/04/27 09:37:15;;;;;;;11.20;10.80;;;16.20;99.90;;;;;;5058707;28;20479;-85
2023/04/27 09:39:44;;;;;;;10.90;10.37;;;16.30;99.90;;;;;;5057365;28;20551;-85
2023/04/27 09:42:14;;;;;;;11.77;10.70;;;16.30;99.90;;;;;;5059691;28;20475;-85
2023/04/27 09:44:43;;;;;;;10.60;10.00;;;16.30;99.90;;;;;;5061285;28;20452;-86
2023/04/27 09:47:13;;;;;;;10.63;9.90;;;16.20;99.90;;;;;;5061599;28;20458;-85
2023/04/27 09:49:41;;;;;;;10.60;9.90;;;16.30;99.90;;;;;;5059585;28;20458;-83
2023/04/27 09:52:10;;;;;;;10.70;10.10;;;16.30;99.90;;;;;;5066471;28;20550;-83
2023/04/27 09:54:41;;;;;;;10.07;9.47;;;16.30;99.90;;;;;;5061212;28;20453;-84
2023/04/27 09:57:21;;;;;;;10.10;9.60;;;16.30;99.90;;;;;;5058386;28;20514;-86
2023/04/27 10:00:06;;;;;;;9.93;9.53;;;16.40;99.90;;;;;;5060561;28;20922;-84
2023/04/27 10:02:42;;;;;;;11.17;10.47;;;16.50;99.90;;;;;;5063129;28;20481;-85
2023/04/27 10:05:40;;;;;;;9.73;9.43;;;16.60;99.90;;;;;;5063444;28;20458;-85
2023/04/27 10:08:10;;;;;;;10.20;9.90;;;16.60;99.90;;;;;;5065913;28;20453;-86
2023/04/27 10:10:50;;;;;;;10.43;9.77;;;16.60;99.90;;;;;;5058913;28;20521;-84
2023/04/27 10:13:23;;;;;;;12.00;11.37;;;16.70;99.90;;;;;;5054742;28;20566;-84
2023/04/27 10:15:51;;;;;;;10.40;10.00;;;16.80;99.90;;;;;;5049190;28;20455;-84
2023/04/27 10:18:27;;;;;;;12.23;11.53;;;16.90;99.90;;;;;;5058618;28;20480;-83
2023/04/27 10:20:55;;;;;;;11.70;11.20;;;16.90;99.90;;;;;;5074276;28;20482;-83
2023/04/27 10:23:25;;;;;;;10.80;10.43;;;16.90;99.90;;;;;;5061100;28;20479;-85
2023/04/27 10:25:56;;;;;;;10.03;9.63;;;16.90;99.90;;;;;;5072276;28;21055;-84
2023/04/27 10:28:24;;;;;;;10.93;10.43;;;16.90;99.90;;;;;;5057292;28;20462;-85
2023/04/27 10:30:52;;;;;;;10.00;9.70;;;16.90;99.90;;;;;;5057901;28;20487;-84
2023/04/27 10:33:23;;;;;;;10.87;10.47;;;17.00;99.90;;;;;;5063119;28;20497;-84
2023/04/27 10:35:55;;;;;;;11.00;10.70;;;17.10;99.90;;;;;;5064814;28;20461;-82
2023/04/27 10:38:28;;;;;;;12.50;11.80;;;17.10;99.90;;;;;;5059917;28;20473;-81
2023/04/27 10:41:00;;;;;;;12.57;11.90;;;17.10;99.90;;;;;;5065158;28;20456;-82
2023/04/27 10:43:30;;;;;;;12.40;11.70;;;17.20;99.90;;;;;;5059325;28;20454;-84
2023/04/27 10:46:08;;;;;;;11.80;11.30;;;17.30;99.90;;;;;;5062458;28;20460;-84
2023/04/27 10:48:36;;;;;;;11.20;10.90;;;17.30;99.90;;;;;;5061163;28;20955;-82
2023/04/27 10:51:05;;;;;;;11.80;11.10;;;17.30;99.90;;;;;;5059856;28;20801;-83
2023/04/27 10:53:36;;;;;;;10.97;10.47;;;17.40;99.90;;;;;;5060680;28;20726;-84
2023/04/27 10:56:07;;;;;;;11.10;10.70;;;17.50;99.90;;;;;;5063387;28;20508;-85
2023/04/27 10:58:35;;;;;;;11.33;10.73;;;17.40;99.90;;;;;;5064114;28;20474;-82
2023/04/27 11:01:24;;;;;;;11.53;11.10;;;17.50;99.90;;;;;;5060982;28;20461;-83
2023/04/27 11:03:56;;;;;;;11.57;11.13;;;17.50;99.90;;;;;;5060676;28;20520;-82
2023/04/27 11:06:25;;;;;;;11.43;10.83;;;17.60;99.90;;;;;;5061461;28;20821;-84
2023/04/27 11:08:53;;;;;;;10.53;10.20;;;17.50;99.90;;;;;;5063406;28;20504;-83
2023/04/27 11:11:23;;;;;;;11.20;10.60;;;17.40;99.90;;;;;;5060142;28;20476;-85
2023/04/27 11:13:52;;;;;;;10.90;10.30;;;17.40;99.90;;;;;;5059664;28;20454;-84
2023/04/27 11:16:20;;;;;;;11.40;10.90;;;17.40;99.90;;;;;;5062304;28;20453;-85
2023/04/27 11:18:48;;;;;;;11.37;10.97;;;17.50;99.90;;;;;;5061564;28;21108;-84
2023/04/27 11:21:19;;;;;;;11.17;10.77;;;17.40;99.90;;;;;;5063766;28;20457;-84
2023/04/27 11:23:47;;;;;;;11.83;11.30;;;17.50;99.90;;;;;;5058091;28;20459;-84
2023/04/27 11:26:18;;;;;;;10.23;9.93;;;17.60;99.90;;;;;;5060428;28;20458;-83
2023/04/27 11:29:04;;;;;;;11.07;10.57;;;17.50;99.90;;;;;;5064569;28;20443;-83
2023/04/27 11:31:46;;;;;;;10.80;10.20;;;17.50;99.90;;;;;;5060346;28;20471;-81
2023/04/27 11:34:18;;;;;;;11.10;10.70;;;17.50;99.90;;;;;;5060883;28;20458;-84
2023/04/27 11:36:56;;;;;;;11.30;10.90;;;17.60;99.90;;;;;;5062962;28;20492;-83
2023/04/27 11:39:45;;;;;;;10.80;10.27;;;17.60;99.90;;;;;;5056217;28;20515;-84
2023/04/27 11:42:18;;;;;;;9.90;9.60;;;17.60;99.90;;;;;;5064213;28;20478;-80
2023/04/27 11:44:55;;;;;;;10.70;10.33;;;17.70;99.90;;;;;;5055128;28;20464;-82
2023/04/27 11:47:26;;;;;;;11.13;10.43;;;17.60;99.90;;;;;;5064680;28;20462;-81
2023/04/27 11:49:56;;;;;;;11.77;11.10;;;17.60;99.90;;;;;;5059003;28;21037;-81
2023/04/27 11:52:29;;;;;;;10.17;9.77;;;17.50;99.90;;;;;;5062213;28;20481;-81
2023/04/27 11:54:57;;;;;;;10.77;10.27;;;17.50;99.90;;;;;;5060715;28;20509;-82
2023/04/27 11:57:27;;;;;;;11.07;10.40;;;17.50;99.90;;;;;;5061464;28;20859;-82
2023/04/27 11:59:58;;;;;;;10.50;9.90;;;17.40;99.90;;;;;;5057381;28;20494;-79
2023/04/27 12:02:28;;;;;;;10.50;9.93;;;17.50;99.90;;;;;;5058406;28;20486;-82
2023/04/27 12:04:58;;;;;;;10.90;10.40;;;17.60;99.90;;;;;;5060357;28;20454;-79
2023/04/27 12:07:27;;;;;;;12.33;11.80;;;17.70;99.90;;;;;;5061087;28;20451;-79
2023/04/27 12:09:55;;;;;;;11.77;11.17;;;17.80;99.90;;;;;;5056410;28;20856;-81
2023/04/27 12:12:26;;;;;;;11.13;10.73;;;17.80;99.90;;;;;;5059523;28;20478;-83
2023/04/27 12:14:56;;;;;;;10.60;10.20;;;17.80;99.90;;;;;;5053253;28;20472;-84
2023/04/27 12:17:25;;;;;;;10.80;10.40;;;17.70;99.90;;;;;;5057782;28;20738;-82
2023/04/27 12:19:53;;;;;;;11.20;10.37;;;17.60;99.90;;;;;;5060717;28;20463;-80
2023/04/27 12:22:21;;;;;;;12.43;11.60;;;17.60;99.90;;;;;;5060953;28;20473;-81
2023/04/27 12:24:50;;;;;;;10.90;10.30;;;17.60;99.90;;;;;;5055966;28;20464;-80
2023/04/27 12:27:19;;;;;;;10.57;10.07;;;17.70;99.90;;;;;;5062051;28;20443;-81
2023/04/27 12:29:47;;;;;;;10.43;9.97;;;17.80;99.90;;;;;;5058525;28;20463;-81
2023/04/27 12:32:16;;;;;;;10.50;10.00;;;17.70;99.90;;;;;;5060547;28;20493;-81
2023/04/27 12:34:45;;;;;;;10.47;9.97;;;17.80;99.90;;;;;;5058347;28;20469;-80
2023/04/27 12:37:13;;;;;;;12.37;10.60;;;17.80;99.90;;;;;;5054402;28;20501;-81
2023/04/27 12:39:41;;;;;;;9.73;9.23;;;17.80;99.90;;;;;;5059878;28;20976;-82
2023/04/27 12:42:09;;;;;;;8.80;8.50;;;17.70;99.90;;;;;;5059017;28;21214;-82
2023/04/27 12:44:38;;;;;;;9.30;8.87;;;17.60;99.90;;;;;;5056841;28;20562;-81
2023/04/27 12:47:06;;;;;;;8.90;8.50;;;17.50;99.90;;;;;;5056289;28;20537;-81
2023/04/27 12:49:36;;;;;;;9.40;9.10;;;17.50;99.90;;;;;;5062025;28;20549;-82
2023/04/27 12:52:05;;;;;;;10.37;9.57;;;17.50;99.90;;;;;;5054790;28;20496;-83
2023/04/27 12:54:33;;;;;;;8.73;8.43;;;17.40;99.90;;;;;;5073897;28;20549;-81
2023/04/27 12:57:05;;;;;;;10.00;9.43;;;17.40;99.90;;;;;;5068201;28;20445;-84
2023/04/27 12:59:33;;;;;;;9.50;9.10;;;17.40;99.90;;;;;;5065754;28;20486;-84
2023/04/27 13:02:02;;;;;;;9.07;8.77;;;17.40;99.90;;;;;;5066608;28;20481;-82
2023/04/27 13:04:31;;;;;;;9.07;8.77;;;17.40;99.90;;;;;;5062286;28;20497;-81
2023/04/27 13:07:02;;;;;;;8.90;8.50;;;17.50;99.90;;;;;;5059762;28;20456;-83
2023/04/27 13:09:30;;;;;;;9.70;9.40;;;17.60;99.90;;;;;;5058898;28;20861;-82
2023/04/27 13:11:59;;;;;;;9.40;8.90;;;17.60;99.90;;;;;;5060323;28;20228;-82
2023/04/27 13:14:29;;;;;;;9.60;9.20;;;17.60;99.90;;;;;;5057293;28;20898;-81
2023/04/27 13:16:57;;;;;;;9.73;9.40;;;17.60;99.90;;;;;;5056530;28;20521;-81
2023/04/27 13:19:25;;;;;;;9.20;8.90;;;17.50;99.90;;;;;;5056602;28;20479;-81
2023/04/27 13:21:54;;;;;;;9.70;9.30;;;17.60;99.90;;;;;;5056618;28;20479;-81
2023/04/27 13:24:24;;;;;;;10.10;9.60;;;17.60;99.90;;;;;;5061448;28;20462;-81
2023/04/27 13:26:53;;;;;;;9.40;9.00;;;17.50;99.90;;;;;;5062810;28;20462;-80
2023/04/27 13:29:23;;;;;;;9.63;9.23;;;17.50;99.90;;;;;;5059472;28;20462;-82
2023/04/27 13:31:51;;;;;;;9.40;9.00;;;17.50;99.90;;;;;;5055185;28;20563;-81
2023/04/27 13:34:20;;;;;;;8.60;8.30;;;17.50;99.90;;;;;;5055189;28;20476;-81
2023/04/27 13:36:48;;;;;;;9.20;8.80;;;17.50;99.90;;;;;;5058519;28;20435;-81
2023/04/27 13:39:16;;;;;;;9.47;9.07;;;17.50;99.90;;;;;;5059864;28;21361;-81